Time;durP1;ratioP1;P1;durP2;ratioP2;P2;SDS_P1;SDS_P2;PMS_P1;PMS_P2;Temp;Humidity;BMP_temperature;BMP_pressure;BME280_temperature;BME280_humidity;BME280_pressure;Samples;Min_cycle;Max_cycle;Signal;HPM_P1;HPM_P2
2021/06/06 00:01:18;;;;;;;1.50;0.90;;;16.40;98.20;;;;;;5024752;28;20719;-77
2021/06/06 00:03:48;;;;;;;1.50;1.00;;;16.40;98.20;;;;;;5047470;28;20487;-76
2021/06/06 00:06:17;;;;;;;1.70;1.20;;;16.40;98.20;;;;;;5027963;28;20840;-77
2021/06/06 00:08:43;;;;;;;1.53;1.00;;;16.40;98.20;;;;;;5044061;28;20965;-77
2021/06/06 00:11:14;;;;;;;1.50;1.00;;;16.40;98.20;;;;;;5024540;28;20466;-76
2021/06/06 00:13:41;;;;;;;1.50;1.00;;;16.40;98.20;;;;;;5044549;28;20501;-76
2021/06/06 00:16:12;;;;;;;1.50;1.00;;;16.40;98.20;;;;;;5020898;28;20564;-77
2021/06/06 00:18:38;;;;;;;1.50;1.00;;;16.40;98.20;;;;;;5049438;28;20490;-76
2021/06/06 00:21:06;;;;;;;1.53;0.90;;;16.30;98.20;;;;;;5021645;28;20483;-76
2021/06/06 00:23:32;;;;;;;1.53;1.00;;;16.40;98.20;;;;;;5052323;28;20829;-76
2021/06/06 00:25:59;;;;;;;1.53;1.00;;;16.30;98.20;;;;;;5022599;28;20467;-76
2021/06/06 00:28:25;;;;;;;1.50;1.00;;;16.40;98.20;;;;;;5055479;28;20521;-77
2021/06/06 00:30:51;;;;;;;1.50;0.90;;;16.40;98.20;;;;;;5020637;28;20536;-75
2021/06/06 00:33:19;;;;;;;1.50;0.90;;;16.30;98.20;;;;;;5054824;28;20523;-75
2021/06/06 00:35:45;;;;;;;1.80;1.20;;;16.30;98.20;;;;;;5024143;28;20478;-77
2021/06/06 00:38:12;;;;;;;1.50;1.00;;;16.40;98.20;;;;;;5058661;28;20491;-77
2021/06/06 00:40:38;;;;;;;1.50;0.90;;;16.40;98.20;;;;;;5029099;28;20468;-76
2021/06/06 00:43:06;;;;;;;1.50;0.90;;;16.40;98.20;;;;;;5048359;28;20492;-76
2021/06/06 00:45:36;;;;;;;1.53;1.00;;;16.40;98.20;;;;;;5030949;28;20459;-76
2021/06/06 00:48:04;;;;;;;1.50;1.13;;;16.30;98.20;;;;;;5049729;28;20478;-75
2021/06/06 00:50:34;;;;;;;1.50;1.00;;;16.30;98.20;;;;;;5030028;28;20471;-75
2021/06/06 00:53:04;;;;;;;1.53;0.90;;;16.30;98.20;;;;;;5046564;28;20521;-76
2021/06/06 00:55:32;;;;;;;1.50;1.00;;;16.30;98.20;;;;;;5031239;28;20467;-78
2021/06/06 00:57:59;;;;;;;1.50;1.00;;;16.30;98.20;;;;;;5054225;28;20519;-77
2021/06/06 01:00:32;;;;;;;1.50;1.00;;;16.30;98.20;;;;;;5031556;28;20600;-77
2021/06/06 01:02:59;;;;;;;1.50;0.90;;;16.30;98.20;;;;;;5051669;28;20493;-78
2021/06/06 01:05:30;;;;;;;1.50;1.00;;;16.30;98.20;;;;;;5032253;28;20463;-75
2021/06/06 01:08:01;;;;;;;1.50;1.00;;;16.30;98.20;;;;;;5046981;28;20478;-78
2021/06/06 01:10:27;;;;;;;1.50;1.00;;;16.30;98.20;;;;;;5032843;28;20455;-77
2021/06/06 01:12:58;;;;;;;1.57;0.97;;;16.30;98.20;;;;;;5053475;28;20589;-76
2021/06/06 01:15:29;;;;;;;1.53;1.00;;;16.30;98.20;;;;;;5032137;28;20550;-77
2021/06/06 01:18:06;;;;;;;1.50;1.00;;;16.30;98.20;;;;;;5040055;28;20543;-76
2021/06/06 01:20:42;;;;;;;1.60;1.00;;;16.20;98.20;;;;;;5027986;28;20538;-77
2021/06/06 01:23:28;;;;;;;1.57;1.00;;;16.20;98.20;;;;;;5050768;28;21081;-77
2021/06/06 01:26:01;;;;;;;1.57;1.00;;;16.20;98.20;;;;;;5025101;28;20693;-77
2021/06/06 01:28:34;;;;;;;1.50;1.00;;;16.20;98.20;;;;;;5061822;28;20482;-76
2021/06/06 01:31:02;;;;;;;1.57;0.90;;;16.20;98.20;;;;;;5027941;28;20471;-77
2021/06/06 01:33:33;;;;;;;1.50;1.00;;;16.20;98.20;;;;;;5055865;28;20541;-76
2021/06/06 01:36:05;;;;;;;1.50;1.00;;;16.20;98.20;;;;;;5024273;28;20479;-77
2021/06/06 01:38:36;;;;;;;1.50;0.97;;;16.20;98.20;;;;;;5054613;28;20483;-77
2021/06/06 01:41:09;;;;;;;1.50;1.00;;;16.20;98.20;;;;;;5024324;28;20841;-76
2021/06/06 01:43:39;;;;;;;1.50;1.00;;;16.20;98.20;;;;;;5056758;28;21057;-77
2021/06/06 01:46:09;;;;;;;1.57;1.00;;;16.20;98.20;;;;;;5028514;28;20473;-75
2021/06/06 01:48:40;;;;;;;1.50;1.00;;;16.20;98.20;;;;;;5056561;28;20505;-77
2021/06/06 01:51:11;;;;;;;1.57;0.90;;;16.20;98.20;;;;;;5027042;28;20922;-77
2021/06/06 01:53:40;;;;;;;1.60;1.00;;;16.20;98.20;;;;;;5052362;28;20487;-76
2021/06/06 01:56:09;;;;;;;1.57;1.00;;;16.20;98.20;;;;;;5023123;28;20470;-78
2021/06/06 01:58:37;;;;;;;1.57;1.00;;;16.10;98.20;;;;;;5056820;28;20540;-77
2021/06/06 02:01:09;;;;;;;1.50;1.00;;;16.10;98.20;;;;;;5026024;28;20471;-76
2021/06/06 02:03:36;;;;;;;1.53;0.90;;;16.10;98.20;;;;;;5054084;28;20994;-76
2021/06/06 02:06:04;;;;;;;1.60;1.10;;;16.10;98.20;;;;;;5020910;28;20502;-76
2021/06/06 02:08:34;;;;;;;1.53;1.00;;;16.10;98.20;;;;;;5051202;28;20489;-76
2021/06/06 02:11:05;;;;;;;1.57;1.00;;;16.10;98.20;;;;;;5023141;28;20474;-76
2021/06/06 02:13:40;;;;;;;1.50;1.00;;;16.10;98.20;;;;;;5049647;28;20494;-76
2021/06/06 02:16:07;;;;;;;1.50;1.00;;;16.10;98.20;;;;;;5025760;28;22880;-76
2021/06/06 02:18:34;;;;;;;1.50;0.90;;;16.10;98.20;;;;;;5048467;28;20533;-76
2021/06/06 02:21:01;;;;;;;1.60;1.10;;;16.10;98.20;;;;;;5019701;28;20467;-77
2021/06/06 02:23:30;;;;;;;1.50;1.00;;;16.10;98.20;;;;;;5049288;28;20487;-76
2021/06/06 02:26:03;;;;;;;1.60;1.00;;;16.10;98.20;;;;;;5018998;28;21039;-77
2021/06/06 02:28:39;;;;;;;1.50;1.00;;;16.00;98.20;;;;;;5052476;28;20474;-77
2021/06/06 02:31:12;;;;;;;1.53;1.00;;;16.10;98.20;;;;;;5025266;28;20637;-75
2021/06/06 02:33:43;;;;;;;1.57;1.00;;;16.10;98.20;;;;;;5042311;28;20585;-77
2021/06/06 02:36:12;;;;;;;1.53;0.90;;;16.10;98.20;;;;;;5019021;28;20479;-77
2021/06/06 02:38:43;;;;;;;1.60;1.10;;;16.00;98.20;;;;;;5047486;28;20494;-75
2021/06/06 02:41:13;;;;;;;1.53;0.90;;;16.00;98.20;;;;;;5017030;28;20627;-77
2021/06/06 02:43:46;;;;;;;1.57;1.00;;;16.00;98.20;;;;;;5047366;28;20506;-76
2021/06/06 02:46:17;;;;;;;1.53;1.00;;;16.00;98.20;;;;;;5022921;28;20866;-75
2021/06/06 02:48:47;;;;;;;1.50;0.97;;;15.90;98.20;;;;;;5049014;28;20538;-76
2021/06/06 02:51:15;;;;;;;1.50;0.90;;;15.90;98.20;;;;;;5025276;28;20481;-75
2021/06/06 02:53:48;;;;;;;1.60;1.20;;;15.90;98.20;;;;;;5047252;28;20483;-76
2021/06/06 02:56:20;;;;;;;1.60;1.10;;;15.90;98.20;;;;;;5025388;28;20479;-77
2021/06/06 02:58:51;;;;;;;1.50;1.00;;;15.90;98.20;;;;;;5045888;28;20488;-77
2021/06/06 03:01:21;;;;;;;1.57;1.00;;;15.90;98.20;;;;;;5026712;28;20477;-77
2021/06/06 03:03:49;;;;;;;1.57;1.00;;;15.90;98.20;;;;;;5045583;28;20483;-77
2021/06/06 03:06:21;;;;;;;1.53;1.00;;;15.90;98.20;;;;;;5024275;28;20863;-76
2021/06/06 03:08:47;;;;;;;1.53;1.00;;;15.90;98.20;;;;;;5047645;28;20817;-77
2021/06/06 03:11:16;;;;;;;1.50;1.07;;;15.90;98.20;;;;;;5022512;28;20908;-77
2021/06/06 03:13:45;;;;;;;1.50;1.00;;;15.90;98.20;;;;;;5050635;28;20547;-76
2021/06/06 03:16:16;;;;;;;1.53;1.00;;;15.80;98.20;;;;;;5025130;28;20559;-77
2021/06/06 03:18:46;;;;;;;1.50;0.90;;;15.80;98.20;;;;;;5048598;28;20495;-77
2021/06/06 03:21:17;;;;;;;1.50;0.90;;;15.90;98.20;;;;;;5025583;28;20477;-76
2021/06/06 03:23:48;;;;;;;1.50;0.90;;;15.80;98.20;;;;;;5043627;28;20522;-77
2021/06/06 03:26:16;;;;;;;1.60;1.00;;;15.80;98.20;;;;;;5025817;28;20496;-76
2021/06/06 03:28:43;;;;;;;1.60;1.10;;;15.90;98.20;;;;;;5051936;28;20966;-76
2021/06/06 03:31:18;;;;;;;1.50;0.90;;;15.90;98.20;;;;;;5025101;28;20473;-77
2021/06/06 03:33:49;;;;;;;1.53;1.00;;;15.90;98.20;;;;;;5047245;28;20497;-77
2021/06/06 03:36:19;;;;;;;1.50;1.00;;;15.90;98.20;;;;;;5023061;28;20499;-76
2021/06/06 03:38:45;;;;;;;1.60;1.00;;;15.90;98.20;;;;;;5045570;28;20491;-77
2021/06/06 03:41:12;;;;;;;1.53;1.00;;;15.90;98.20;;;;;;5025771;28;20469;-77
2021/06/06 03:43:38;;;;;;;1.57;1.00;;;15.90;98.20;;;;;;5052142;28;20564;-77
2021/06/06 03:46:07;;;;;;;1.53;1.00;;;15.90;98.20;;;;;;5023107;28;20462;-76
2021/06/06 03:48:35;;;;;;;1.50;1.00;;;15.90;98.20;;;;;;5051821;28;20464;-77
2021/06/06 03:51:01;;;;;;;1.50;0.90;;;15.90;98.20;;;;;;5023217;28;20463;-76
2021/06/06 03:53:28;;;;;;;1.50;1.00;;;15.80;98.20;;;;;;5053245;28;20493;-76
2021/06/06 03:55:55;;;;;;;1.50;0.90;;;15.80;98.20;;;;;;5023035;28;20454;-77
2021/06/06 03:58:22;;;;;;;1.50;0.90;;;15.80;98.20;;;;;;5057572;28;20495;-76
2021/06/06 04:00:50;;;;;;;1.50;0.90;;;15.70;98.20;;;;;;5019136;28;20463;-77
2021/06/06 04:03:18;;;;;;;1.50;0.90;;;15.70;98.20;;;;;;5056321;28;20483;-77
2021/06/06 04:05:49;;;;;;;1.60;1.17;;;15.70;98.20;;;;;;5027983;28;20903;-77
2021/06/06 04:08:16;;;;;;;1.50;0.93;;;15.70;98.20;;;;;;5015989;28;21085;-77
2021/06/06 04:10:43;;;;;;;1.97;1.77;;;15.60;98.20;;;;;;5027999;28;20471;-76
2021/06/06 04:13:10;;;;;;;1.50;0.97;;;15.60;98.20;;;;;;5044842;28;20486;-76
2021/06/06 04:15:36;;;;;;;1.53;1.00;;;15.60;98.20;;;;;;5027557;28;20536;-75
2021/06/06 04:18:11;;;;;;;1.50;1.00;;;15.60;98.20;;;;;;5048895;28;20481;-75
2021/06/06 04:20:38;;;;;;;1.57;1.00;;;15.60;98.20;;;;;;5031196;28;20459;-77
2021/06/06 04:23:06;;;;;;;1.50;1.00;;;15.60;98.20;;;;;;5053165;28;20858;-76
2021/06/06 04:25:33;;;;;;;1.60;1.00;;;15.60;98.20;;;;;;5032106;28;20459;-78
2021/06/06 04:27:59;;;;;;;1.50;0.90;;;15.60;98.20;;;;;;5052724;28;20481;-75
2021/06/06 04:30:26;;;;;;;1.57;1.00;;;15.70;98.20;;;;;;5031701;28;20692;-75
2021/06/06 04:32:52;;;;;;;1.50;1.00;;;15.70;98.20;;;;;;5047512;28;20545;-75
2021/06/06 04:35:19;;;;;;;1.57;1.00;;;15.70;98.20;;;;;;5088807;23;20439;-81
2021/06/06 04:37:46;;;;;;;1.50;0.97;;;15.70;98.20;;;;;;5069558;28;20484;-80
2021/06/06 04:40:15;;;;;;;1.53;1.00;;;15.70;98.20;;;;;;5059851;28;20462;-80
2021/06/06 04:42:42;;;;;;;1.57;1.00;;;15.70;98.20;;;;;;5062915;28;20489;-80
2021/06/06 04:45:11;;;;;;;1.50;0.90;;;15.70;98.20;;;;;;5062871;28;20521;-80
2021/06/06 04:47:37;;;;;;;1.53;1.00;;;15.70;98.20;;;;;;5066265;28;20477;-80
2021/06/06 04:50:05;;;;;;;1.50;1.00;;;15.70;98.20;;;;;;5054560;28;20463;-80
2021/06/06 04:52:36;;;;;;;1.53;1.00;;;15.70;98.20;;;;;;5065538;28;20488;-81
2021/06/06 04:55:04;;;;;;;1.57;1.00;;;15.70;98.20;;;;;;5053288;28;20467;-80
2021/06/06 04:57:32;;;;;;;1.57;1.00;;;15.70;98.20;;;;;;5063158;28;20478;-81
2021/06/06 04:59:58;;;;;;;1.50;1.00;;;15.70;98.20;;;;;;5053584;28;20586;-82
2021/06/06 05:02:24;;;;;;;1.50;1.00;;;15.80;98.20;;;;;;5059352;28;20574;-80
2021/06/06 05:04:51;;;;;;;1.50;1.00;;;15.80;98.20;;;;;;5057451;28;20458;-81
2021/06/06 05:07:17;;;;;;;1.53;1.00;;;15.80;98.20;;;;;;5057855;28;20482;-80
2021/06/06 05:09:44;;;;;;;1.53;1.00;;;15.80;98.20;;;;;;5064270;28;20950;-81
2021/06/06 05:12:11;;;;;;;1.50;1.00;;;15.80;98.20;;;;;;5053034;28;20550;-81
2021/06/06 05:14:38;;;;;;;1.53;1.00;;;15.70;98.20;;;;;;5056776;28;20558;-80
2021/06/06 05:17:05;;;;;;;1.50;1.00;;;15.70;98.20;;;;;;5053098;28;20486;-81
2021/06/06 05:19:31;;;;;;;1.57;1.00;;;15.70;98.20;;;;;;5057186;28;20489;-81
2021/06/06 05:21:57;;;;;;;1.50;0.90;;;15.60;98.20;;;;;;5050242;28;20497;-81
2021/06/06 05:24:24;;;;;;;1.50;1.00;;;15.60;98.20;;;;;;5060696;28;20455;-80
2021/06/06 05:26:50;;;;;;;1.53;1.00;;;15.60;98.20;;;;;;5055872;28;20474;-81
2021/06/06 05:29:16;;;;;;;1.60;1.00;;;15.60;98.20;;;;;;5057749;28;20458;-81
2021/06/06 05:31:44;;;;;;;1.53;1.00;;;15.60;98.20;;;;;;5051338;28;20546;-81
2021/06/06 05:34:11;;;;;;;1.50;1.00;;;15.60;98.20;;;;;;5063067;28;20462;-81
2021/06/06 05:36:37;;;;;;;1.57;1.00;;;15.70;98.20;;;;;;5053723;28;20736;-81
2021/06/06 05:39:05;;;;;;;1.57;1.00;;;15.70;98.20;;;;;;5067126;28;20513;-81
2021/06/06 05:41:31;;;;;;;1.57;1.17;;;15.70;98.20;;;;;;5047366;28;20549;-82
2021/06/06 05:43:58;;;;;;;1.53;1.00;;;15.70;98.20;;;;;;5066422;28;20459;-84
2021/06/06 05:46:24;;;;;;;1.60;1.00;;;15.70;98.20;;;;;;5051655;28;20481;-81
2021/06/06 05:48:52;;;;;;;1.53;1.00;;;15.70;98.20;;;;;;5072957;28;20537;-83
2021/06/06 05:51:19;;;;;;;1.50;1.00;;;15.70;98.20;;;;;;5044232;28;20538;-82
2021/06/06 05:53:46;;;;;;;1.50;0.90;;;15.70;98.20;;;;;;5063538;28;20530;-81
2021/06/06 05:56:13;;;;;;;1.50;0.90;;;15.70;98.20;;;;;;5042109;28;20702;-82
2021/06/06 05:58:40;;;;;;;1.60;1.03;;;15.70;98.20;;;;;;5063967;28;20475;-82
2021/06/06 06:01:07;;;;;;;1.50;1.00;;;15.70;98.20;;;;;;5040012;28;20484;-82
2021/06/06 06:03:34;;;;;;;1.50;1.00;;;15.70;98.20;;;;;;5067329;28;20478;-82
2021/06/06 06:06:06;;;;;;;1.50;1.00;;;15.70;98.20;;;;;;5036994;28;20499;-83
2021/06/06 06:08:36;;;;;;;1.50;1.00;;;15.70;98.20;;;;;;5075261;28;20458;-82
2021/06/06 06:11:04;;;;;;;1.57;1.00;;;15.70;98.20;;;;;;5057744;28;20458;-83
2021/06/06 06:13:32;;;;;;;1.50;1.00;;;15.70;98.20;;;;;;5060603;28;20477;-82
2021/06/06 06:16:00;;;;;;;1.57;1.00;;;15.60;98.20;;;;;;5058149;28;20509;-82
2021/06/06 06:18:29;;;;;;;1.50;1.00;;;15.60;98.20;;;;;;5068500;28;20580;-82
2021/06/06 06:20:59;;;;;;;1.50;0.90;;;15.60;98.20;;;;;;5054138;28;20490;-81
2021/06/06 06:23:29;;;;;;;1.50;1.00;;;15.60;98.20;;;;;;5073975;28;20457;-82
2021/06/06 06:25:58;;;;;;;1.53;1.00;;;15.60;98.20;;;;;;5059128;28;20482;-83
2021/06/06 06:28:25;;;;;;;1.50;1.00;;;15.60;98.20;;;;;;5063673;28;20828;-81
2021/06/06 06:30:52;;;;;;;1.50;0.90;;;15.60;98.20;;;;;;5047315;28;20545;-81
2021/06/06 06:33:19;;;;;;;1.60;1.10;;;15.60;98.20;;;;;;5048897;28;20557;-81
2021/06/06 06:35:45;;;;;;;1.50;1.00;;;15.60;98.20;;;;;;5047319;28;20486;-81
2021/06/06 06:38:13;;;;;;;1.50;1.00;;;15.70;98.20;;;;;;5067986;28;20526;-82
2021/06/06 06:40:42;;;;;;;1.50;1.00;;;15.70;98.20;;;;;;5049136;28;20462;-81
2021/06/06 06:43:09;;;;;;;2.07;1.87;;;15.80;98.20;;;;;;5048991;28;20541;-81
2021/06/06 06:45:39;;;;;;;1.53;1.00;;;15.80;98.20;;;;;;5045585;28;20479;-81
2021/06/06 06:48:10;;;;;;;1.50;0.90;;;15.90;98.20;;;;;;5054721;28;20481;-80
2021/06/06 06:50:37;;;;;;;1.53;0.97;;;15.90;98.20;;;;;;5050564;28;20569;-80
2021/06/06 06:53:04;;;;;;;1.53;1.00;;;15.90;98.20;;;;;;5040535;28;20581;-81
2021/06/06 06:55:31;;;;;;;1.60;1.00;;;15.90;98.20;;;;;;5043900;28;20529;-80
2021/06/06 06:58:00;;;;;;;1.50;1.00;;;15.90;98.20;;;;;;5039341;28;20526;-80
2021/06/06 07:00:30;;;;;;;1.57;1.00;;;15.90;98.20;;;;;;5044439;28;20521;-81
2021/06/06 07:02:56;;;;;;;1.50;0.90;;;15.90;98.20;;;;;;5051900;28;20481;-80
2021/06/06 07:05:23;;;;;;;1.57;1.00;;;16.00;98.20;;;;;;5040259;28;20487;-80
2021/06/06 07:07:49;;;;;;;1.50;0.97;;;16.00;98.20;;;;;;5036952;28;20514;-81
2021/06/06 07:10:19;;;;;;;1.50;0.90;;;15.90;98.20;;;;;;5046942;28;20493;-81
2021/06/06 07:12:45;;;;;;;1.50;0.90;;;15.90;98.20;;;;;;5056206;28;20596;-81
2021/06/06 07:15:15;;;;;;;1.50;1.00;;;15.90;98.20;;;;;;5043055;28;21057;-81
2021/06/06 07:17:42;;;;;;;1.57;1.00;;;15.80;98.20;;;;;;5035624;28;20478;-81
2021/06/06 07:20:12;;;;;;;1.57;1.00;;;15.80;98.20;;;;;;5040544;28;20498;-81
2021/06/06 07:22:39;;;;;;;1.53;1.03;;;15.80;98.20;;;;;;5051013;28;21130;-83
2021/06/06 07:25:08;;;;;;;1.50;1.00;;;15.80;98.20;;;;;;5039874;28;20466;-81
2021/06/06 07:27:37;;;;;;;1.53;1.00;;;15.90;98.20;;;;;;5034401;28;20474;-83
2021/06/06 07:30:06;;;;;;;1.57;1.00;;;15.90;98.20;;;;;;5045873;28;20461;-82
2021/06/06 07:32:36;;;;;;;1.50;0.90;;;16.00;98.20;;;;;;5050324;28;20912;-80
2021/06/06 07:35:05;;;;;;;1.50;1.00;;;15.90;98.20;;;;;;5045789;28;20497;-81
2021/06/06 07:37:32;;;;;;;1.60;1.10;;;15.90;98.20;;;;;;5033368;28;20517;-81
2021/06/06 07:39:58;;;;;;;1.50;0.93;;;16.00;98.20;;;;;;5041879;28;20500;-80
2021/06/06 07:42:24;;;;;;;1.50;0.97;;;16.00;98.20;;;;;;5040810;28;20489;-80
2021/06/06 07:44:51;;;;;;;1.57;1.00;;;16.10;98.20;;;;;;5046499;28;20660;-79
2021/06/06 07:47:17;;;;;;;1.53;1.00;;;16.10;98.20;;;;;;5041261;28;20554;-80
2021/06/06 07:49:45;;;;;;;1.50;1.00;;;16.10;98.20;;;;;;5046221;28;20542;-80
2021/06/06 07:52:11;;;;;;;1.50;1.00;;;16.10;98.20;;;;;;5030062;28;20483;-81
2021/06/06 07:54:38;;;;;;;1.50;0.90;;;16.10;98.20;;;;;;5043649;28;20466;-81
2021/06/06 07:57:05;;;;;;;1.50;1.00;;;16.10;98.20;;;;;;5034511;28;20490;-80
2021/06/06 07:59:33;;;;;;;1.50;0.90;;;16.10;98.20;;;;;;5042795;28;20497;-81
2021/06/06 08:02:00;;;;;;;1.50;0.93;;;16.10;98.20;;;;;;5046774;28;20493;-81
2021/06/06 08:04:26;;;;;;;1.60;1.00;;;16.10;98.20;;;;;;5049750;28;20558;-82
2021/06/06 08:06:54;;;;;;;1.50;1.10;;;16.10;98.20;;;;;;5026978;28;21030;-83
2021/06/06 08:09:20;;;;;;;1.53;1.00;;;16.20;98.20;;;;;;5040919;28;20473;-83
2021/06/06 08:11:47;;;;;;;1.50;0.90;;;16.20;98.20;;;;;;5038068;28;20576;-82
2021/06/06 08:14:16;;;;;;;1.50;1.00;;;16.20;98.20;;;;;;5050535;28;20986;-81
2021/06/06 08:16:42;;;;;;;1.50;0.90;;;16.20;98.20;;;;;;5032605;28;20485;-83
2021/06/06 08:19:09;;;;;;;1.57;1.00;;;16.20;98.20;;;;;;5048202;28;20497;-83
2021/06/06 08:21:41;;;;;;;1.50;0.90;;;16.30;98.20;;;;;;5033339;28;20497;-81
2021/06/06 08:24:09;;;;;;;1.53;1.00;;;16.30;98.20;;;;;;5045394;28;20859;-82
2021/06/06 08:26:36;;;;;;;1.70;1.50;;;16.30;98.20;;;;;;5026888;28;21101;-84
2021/06/06 08:29:03;;;;;;;1.53;0.90;;;16.30;98.20;;;;;;5048686;28;20462;-83
2021/06/06 08:31:33;;;;;;;1.50;0.90;;;16.30;98.20;;;;;;5030704;28;20532;-83
2021/06/06 08:33:59;;;;;;;1.60;1.00;;;16.40;98.20;;;;;;5049563;28;20458;-83
2021/06/06 08:36:28;;;;;;;1.50;0.90;;;16.30;98.20;;;;;;5031800;28;20485;-83
2021/06/06 08:38:56;;;;;;;1.60;1.00;;;16.30;98.20;;;;;;5045857;28;20855;-81
2021/06/06 08:41:27;;;;;;;1.50;1.00;;;16.40;98.20;;;;;;5031785;28;20923;-83
2021/06/06 08:43:59;;;;;;;1.60;1.00;;;16.40;98.20;;;;;;5054656;28;20494;-83
2021/06/06 08:46:28;;;;;;;1.50;1.00;;;16.50;98.20;;;;;;5037184;28;20560;-83
2021/06/06 08:48:57;;;;;;;1.57;0.90;;;16.50;98.20;;;;;;5052775;28;20462;-83
2021/06/06 08:51:33;;;;;;;1.50;1.00;;;16.50;98.20;;;;;;5034644;28;20560;-83
2021/06/06 08:54:08;;;;;;;1.50;1.00;;;16.50;98.20;;;;;;5050380;28;20979;-82
2021/06/06 08:56:38;;;;;;;1.50;0.90;;;16.50;98.20;;;;;;5032661;28;20482;-82
2021/06/06 08:59:08;;;;;;;1.50;0.90;;;16.50;98.20;;;;;;5044830;28;20486;-81
2021/06/06 09:01:43;;;;;;;1.50;0.90;;;16.50;98.20;;;;;;5034396;28;20481;-82
2021/06/06 09:04:13;;;;;;;1.57;1.00;;;16.40;98.20;;;;;;5048047;28;20925;-82
2021/06/06 09:06:47;;;;;;;1.50;0.90;;;16.50;98.20;;;;;;5035306;28;20490;-82
2021/06/06 09:09:14;;;;;;;1.50;1.00;;;16.50;98.20;;;;;;5034899;28;20465;-82
2021/06/06 09:11:42;;;;;;;1.60;1.10;;;16.50;98.20;;;;;;5039042;28;20553;-83
2021/06/06 09:14:09;;;;;;;1.60;1.00;;;16.50;98.20;;;;;;5050624;28;20459;-82
2021/06/06 09:16:50;;;;;;;1.50;1.00;;;16.50;98.20;;;;;;5024708;28;20493;-82
2021/06/06 09:19:16;;;;;;;1.50;0.90;;;16.60;98.20;;;;;;5040096;28;20651;-82
2021/06/06 09:21:51;;;;;;;1.50;0.97;;;16.60;98.20;;;;;;5039330;28;20500;-83
2021/06/06 09:24:33;;;;;;;1.57;1.00;;;16.60;98.20;;;;;;5051579;28;20458;-82
2021/06/06 09:27:09;;;;;;;1.50;1.00;;;16.70;98.20;;;;;;5031914;28;20910;-83
2021/06/06 09:29:36;;;;;;;1.57;1.00;;;16.80;98.20;;;;;;5041531;28;20467;-82
2021/06/06 09:32:09;;;;;;;1.50;0.90;;;16.90;98.20;;;;;;5041431;28;20581;-82
2021/06/06 09:34:35;;;;;;;1.57;1.10;;;17.00;98.20;;;;;;5043675;28;20466;-83
2021/06/06 09:37:07;;;;;;;1.50;0.90;;;17.10;98.20;;;;;;5037864;28;20914;-83
2021/06/06 09:39:40;;;;;;;1.57;0.93;;;17.20;98.20;;;;;;5049671;28;20485;-83
2021/06/06 09:42:22;;;;;;;1.50;0.90;;;17.40;98.20;;;;;;5042987;28;20496;-82
2021/06/06 09:45:03;;;;;;;1.50;0.93;;;17.40;98.20;;;;;;5051040;28;20466;-82
2021/06/06 09:47:30;;;;;;;1.53;1.00;;;17.40;98.20;;;;;;5053118;28;20499;-83
2021/06/06 09:50:06;;;;;;;1.50;1.00;;;17.50;98.20;;;;;;5046297;28;20476;-83
2021/06/06 09:52:41;;;;;;;1.50;0.90;;;17.70;98.20;;;;;;5042201;28;20481;-83
2021/06/06 09:55:15;;;;;;;1.53;1.00;;;17.80;98.20;;;;;;5042781;28;20469;-82
2021/06/06 09:57:43;;;;;;;1.50;0.90;;;17.80;98.20;;;;;;5039423;28;20479;-83
2021/06/06 10:00:14;;;;;;;1.60;1.10;;;17.80;98.20;;;;;;5040922;28;20631;-84
2021/06/06 10:02:52;;;;;;;1.50;0.90;;;17.80;98.20;;;;;;5042244;28;20473;-82
2021/06/06 10:05:28;;;;;;;1.50;0.90;;;17.90;98.20;;;;;;5039093;28;20508;-84
2021/06/06 10:07:58;;;;;;;1.50;0.90;;;18.00;98.20;;;;;;5036122;28;21008;-83
2021/06/06 10:10:29;;;;;;;1.50;1.00;;;18.00;98.20;;;;;;5031825;28;20463;-83
2021/06/06 10:13:00;;;;;;;1.60;1.10;;;18.10;98.20;;;;;;5035935;28;20662;-84
2021/06/06 10:15:43;;;;;;;1.53;0.90;;;18.00;98.20;;;;;;5042449;28;21131;-83
2021/06/06 10:18:14;;;;;;;1.53;1.00;;;17.90;98.20;;;;;;5051201;28;20474;-84
2021/06/06 10:20:43;;;;;;;1.50;0.90;;;17.80;98.20;;;;;;5046617;28;20964;-83
2021/06/06 10:23:16;;;;;;;1.50;1.00;;;17.90;98.20;;;;;;5036748;28;21086;-86
2021/06/06 10:25:48;;;;;;;1.50;0.90;;;18.00;98.20;;;;;;5032223;28;20483;-84
2021/06/06 10:28:18;;;;;;;1.50;0.90;;;18.00;98.20;;;;;;5030329;28;20475;-83
2021/06/06 10:30:49;;;;;;;1.50;0.90;;;18.10;98.20;;;;;;5047269;28;20473;-82
2021/06/06 10:33:25;;;;;;;1.50;0.90;;;18.20;98.20;;;;;;5028956;28;20981;-83
2021/06/06 10:35:53;;;;;;;1.50;0.90;;;18.30;98.20;;;;;;5030474;28;20581;-83
2021/06/06 10:38:20;;;;;;;1.50;0.90;;;18.30;98.20;;;;;;5037085;28;20462;-83
2021/06/06 10:40:50;;;;;;;1.50;0.90;;;18.30;98.20;;;;;;5026975;28;20974;-82
2021/06/06 10:43:29;;;;;;;1.53;0.90;;;18.40;98.20;;;;;;5055191;28;20474;-82
2021/06/06 10:46:01;;;;;;;1.53;0.90;;;18.40;98.20;;;;;;5023665;28;20540;-83
2021/06/06 10:48:31;;;;;;;1.53;0.90;;;18.50;98.20;;;;;;5044255;28;21011;-83
2021/06/06 10:51:09;;;;;;;1.57;1.00;;;18.60;98.20;;;;;;5033240;28;20470;-84
2021/06/06 10:53:37;;;;;;;2.40;1.00;;;18.70;98.20;;;;;;5050402;28;20477;-82
2021/06/06 10:56:08;;;;;;;1.50;0.90;;;18.70;98.20;;;;;;5028417;28;20563;-83
2021/06/06 10:58:57;;;;;;;1.50;0.90;;;18.60;98.20;;;;;;5046498;28;20486;-84
2021/06/06 11:01:30;;;;;;;1.50;0.90;;;18.50;98.20;;;;;;5032789;28;21095;-83
2021/06/06 11:04:10;;;;;;;1.57;0.90;;;18.40;98.20;;;;;;5047225;28;20462;-83
2021/06/06 11:06:38;;;;;;;1.50;0.90;;;18.40;98.20;;;;;;5037138;28;20818;-83
2021/06/06 11:09:06;;;;;;;1.50;0.90;;;18.40;98.20;;;;;;5049369;28;20470;-84
2021/06/06 11:11:34;;;;;;;1.50;0.90;;;18.50;98.20;;;;;;5032104;28;20482;-84
2021/06/06 11:14:18;;;;;;;1.50;0.90;;;18.60;98.20;;;;;;5040244;28;20473;-84
2021/06/06 11:16:46;;;;;;;1.60;1.23;;;18.70;98.20;;;;;;5045111;28;20485;-84
2021/06/06 11:19:26;;;;;;;1.50;0.90;;;18.70;98.20;;;;;;5049133;28;20509;-84
2021/06/06 11:21:55;;;;;;;1.50;0.90;;;18.70;98.20;;;;;;5037471;28;20493;-84
2021/06/06 11:24:29;;;;;;;1.50;0.90;;;18.70;98.20;;;;;;5046899;28;20458;-85
2021/06/06 11:27:28;;;;;;;1.50;0.90;;;18.70;98.20;;;;;;5046081;28;20491;-85
2021/06/06 11:30:05;;;;;;;1.50;0.90;;;18.70;98.20;;;;;;5042546;28;20451;-85
2021/06/06 11:32:41;;;;;;;1.50;0.90;;;18.70;98.20;;;;;;5046930;28;20477;-84
2021/06/06 11:35:21;;;;;;;1.60;1.10;;;18.80;98.20;;;;;;5041156;28;20518;-82
2021/06/06 11:37:49;;;;;;;1.57;1.00;;;18.70;98.20;;;;;;5026165;28;20486;-84
2021/06/06 11:40:39;;;;;;;1.50;0.90;;;18.70;98.20;;;;;;5043243;28;20479;-85
2021/06/06 11:43:17;;;;;;;1.70;1.20;;;18.80;98.20;;;;;;5031250;28;20629;-85
2021/06/06 11:45:48;;;;;;;1.50;0.90;;;19.00;98.20;;;;;;5039553;28;20486;-85
2021/06/06 11:48:24;;;;;;;1.50;0.90;;;19.00;98.20;;;;;;5041823;28;20469;-83
2021/06/06 11:50:56;;;;;;;1.50;0.90;;;19.10;98.20;;;;;;5039747;28;20484;-85
2021/06/06 11:53:26;;;;;;;1.50;0.90;;;19.10;98.20;;;;;;5052321;28;20831;-84
2021/06/06 11:55:57;;;;;;;1.50;0.90;;;19.20;98.20;;;;;;5030526;28;20486;-81
2021/06/06 11:58:27;;;;;;;1.57;0.90;;;19.20;98.20;;;;;;5038126;28;21192;-84
2021/06/06 12:01:03;;;;;;;1.50;0.90;;;19.20;98.20;;;;;;5027109;28;20555;-83
2021/06/06 12:03:32;;;;;;;1.50;0.90;;;19.20;98.20;;;;;;5059280;28;20465;-83
2021/06/06 12:06:01;;;;;;;1.50;0.90;;;19.30;98.20;;;;;;5028592;28;20514;-83
2021/06/06 12:08:31;;;;;;;1.50;1.00;;;19.20;98.20;;;;;;5042676;28;20469;-83
2021/06/06 12:11:00;;;;;;;1.53;0.93;;;19.20;98.20;;;;;;5026654;28;20480;-84
2021/06/06 12:13:29;;;;;;;1.53;0.93;;;19.20;98.20;;;;;;5053806;28;20463;-84
2021/06/06 12:16:07;;;;;;;1.50;0.90;;;19.30;98.20;;;;;;5024389;28;20479;-84
2021/06/06 12:18:34;;;;;;;1.50;0.90;;;19.40;98.20;;;;;;5040847;28;20466;-83
2021/06/06 12:21:06;;;;;;;1.53;0.93;;;19.40;98.20;;;;;;5027702;28;20550;-84
2021/06/06 12:23:35;;;;;;;1.50;0.90;;;19.40;98.20;;;;;;5048335;28;20463;-83
2021/06/06 12:26:08;;;;;;;1.60;1.10;;;19.40;98.20;;;;;;5027820;28;20524;-83
2021/06/06 12:28:39;;;;;;;1.50;0.90;;;19.40;98.20;;;;;;5032339;28;20466;-84
2021/06/06 12:31:16;;;;;;;1.50;0.90;;;19.40;98.20;;;;;;5032298;28;20588;-83
2021/06/06 12:33:42;;;;;;;1.53;1.00;;;19.30;98.20;;;;;;5045309;28;20492;-83
2021/06/06 12:36:13;;;;;;;1.50;0.90;;;19.20;98.20;;;;;;5021210;28;20486;-83
2021/06/06 12:38:41;;;;;;;1.50;0.90;;;19.20;98.20;;;;;;5047249;28;20454;-82
2021/06/06 12:41:09;;;;;;;1.50;0.90;;;19.20;98.20;;;;;;5032716;28;20504;-83
2021/06/06 12:43:38;;;;;;;1.50;0.90;;;19.20;98.20;;;;;;5059543;28;20815;-84
2021/06/06 12:46:09;;;;;;;1.50;1.00;;;19.20;98.20;;;;;;5034413;28;20489;-82
2021/06/06 12:48:37;;;;;;;1.50;1.00;;;19.20;98.20;;;;;;5048717;28;20604;-83
2021/06/06 12:51:15;;;;;;;1.50;1.00;;;19.20;98.20;;;;;;5035383;28;20466;-84
2021/06/06 12:53:42;;;;;;;1.60;1.03;;;19.20;98.20;;;;;;5045271;28;21219;-83
2021/06/06 12:56:14;;;;;;;1.50;0.93;;;19.20;98.20;;;;;;5033207;28;20485;-82
2021/06/06 12:58:41;;;;;;;1.50;0.90;;;19.20;98.20;;;;;;5053100;28;20531;-84
2021/06/06 13:01:13;;;;;;;1.50;0.90;;;19.20;98.20;;;;;;5036812;28;20489;-82